createdAt,value
2022-12-19T00:00:50.012Z,99856.73
2022-12-19T00:03:28.093Z,99854.83
2022-12-19T00:05:56.476Z,99850.46
2022-12-19T00:08:24.603Z,99849.51
2022-12-19T00:10:59.381Z,99852.88
2022-12-19T00:13:29.547Z,99855.71
2022-12-19T00:16:08.827Z,99855.65
2022-12-19T00:18:39.877Z,99855.45
2022-12-19T00:21:08.752Z,99856.30
2022-12-19T00:23:37.288Z,99852.40
2022-12-19T00:26:17.613Z,99855.49
2022-12-19T00:28:52.352Z,99859.73
2022-12-19T00:31:22.848Z,99855.14
2022-12-19T00:33:51.862Z,99857.43
2022-12-19T00:36:24.130Z,99853.68
2022-12-19T00:38:55.575Z,99856.71
2022-12-19T00:41:33.481Z,99861.95
2022-12-19T00:44:07.832Z,99861.30
2022-12-19T00:46:36.999Z,99857.73
2022-12-19T00:49:06.264Z,99859.09
2022-12-19T00:51:37.339Z,99858.09
2022-12-19T00:54:07.260Z,99860.27
2022-12-19T00:56:37.981Z,99858.25
2022-12-19T00:59:09.258Z,99855.96
2022-12-19T01:01:41.671Z,99856.83
2022-12-19T01:04:31.225Z,99858.70
2022-12-19T01:07:03.144Z,99859.45
2022-12-19T01:09:37.220Z,99861.20
2022-12-19T01:12:25.113Z,99864.76
2022-12-19T01:15:04.514Z,99863.15
2022-12-19T01:17:44.085Z,99863.47
2022-12-19T01:20:26.190Z,99859.02
2022-12-19T01:23:00.163Z,99850.99
2022-12-19T01:25:29.556Z,99855.08
2022-12-19T01:27:57.969Z,99857.15
2022-12-19T01:30:27.690Z,99854.39
2022-12-19T01:32:58.819Z,99862.33
2022-12-19T01:35:28.757Z,99860.59
2022-12-19T01:38:07.935Z,99857.71
2022-12-19T01:40:37.783Z,99855.38
2022-12-19T01:43:12.726Z,99851.93
2022-12-19T01:45:45.943Z,99852.05
2022-12-19T01:48:44.431Z,99849.14
2022-12-19T01:51:22.903Z,99847.21
2022-12-19T01:54:04.394Z,99850.50
2022-12-19T01:56:38.993Z,99845.86
2022-12-19T01:59:14.433Z,99843.66
2022-12-19T02:01:51.066Z,99848.17
2022-12-19T02:04:32.182Z,99852.52
2022-12-19T02:07:15.075Z,99851.73
2022-12-19T02:09:49.602Z,99843.88
2022-12-19T02:12:26.574Z,99838.15
2022-12-19T02:15:00.927Z,99838.76
2022-12-19T02:17:45.205Z,99839.89
2022-12-19T02:20:29.404Z,99837.67
2022-12-19T02:23:24.615Z,99838.12
2022-12-19T02:26:53.433Z,99838.24
2022-12-19T02:29:53.775Z,99835.02
2022-12-19T02:32:52.974Z,99833.92
2022-12-19T02:36:12.560Z,99841.45
2022-12-19T02:38:50.968Z,99846.91
2022-12-19T02:41:23.956Z,99847.59
2022-12-19T02:43:58.896Z,99849.94
2022-12-19T02:46:29.580Z,99851.60
2022-12-19T02:48:59.318Z,99853.11
2022-12-19T02:51:27.513Z,99853.54
2022-12-19T02:53:55.585Z,99855.20
2022-12-19T02:56:55.000Z,99859.19
2022-12-19T02:59:53.957Z,99855.36
2022-12-19T03:02:53.846Z,99856.17
2022-12-19T03:06:23.854Z,99856.23
2022-12-19T03:09:30.414Z,99858.33
2022-12-19T03:12:14.095Z,99857.77
2022-12-19T03:14:47.978Z,99865.20
2022-12-19T03:17:19.486Z,99865.38
2022-12-19T03:19:48.610Z,99867.70
2022-12-19T03:22:16.746Z,99871.55
2022-12-19T03:24:44.965Z,99878.81
2022-12-19T03:27:24.317Z,99883.90
2022-12-19T03:30:05.171Z,99883.48
2022-12-19T03:32:36.602Z,99880.86
2022-12-19T03:35:17.185Z,99882.02
2022-12-19T03:37:48.028Z,99880.74
2022-12-19T03:40:22.343Z,99880.69
2022-12-19T03:43:11.920Z,99885.27
2022-12-19T03:46:25.995Z,99887.39
2022-12-19T03:48:55.209Z,99888.98
2022-12-19T03:51:59.231Z,99886.23
2022-12-19T03:54:33.084Z,99885.08
2022-12-19T03:57:07.819Z,99884.80
2022-12-19T04:00:04.547Z,99889.55
2022-12-19T04:02:45.745Z,99893.08
2022-12-19T04:05:20.131Z,99894.77
2022-12-19T04:07:50.284Z,99893.70
2022-12-19T04:10:22.662Z,99893.39
2022-12-19T04:13:00.269Z,99894.20
2022-12-19T04:15:54.389Z,99890.89
2022-12-19T04:18:23.498Z,99891.55
2022-12-19T04:21:02.559Z,99891.71
2022-12-19T04:23:39.229Z,99886.83
2022-12-19T04:26:08.844Z,99892.27
2022-12-19T04:28:54.680Z,99894.16
2022-12-19T04:31:23.964Z,99891.42
2022-12-19T04:33:52.203Z,99889.29
2022-12-19T04:36:20.344Z,99894.05
2022-12-19T04:38:48.868Z,99895.27
2022-12-19T04:41:17.137Z,99894.01
2022-12-19T04:43:45.317Z,99895.74
2022-12-19T04:46:13.417Z,99894.75
2022-12-19T04:48:41.573Z,99892.95
2022-12-19T04:51:10.243Z,99895.63
2022-12-19T04:53:38.422Z,99901.80
2022-12-19T04:56:07.609Z,99908.63
2022-12-19T04:58:35.991Z,99911.11
2022-12-19T05:01:07.086Z,99913.27
2022-12-19T05:03:37.077Z,99911.61
2022-12-19T05:06:14.950Z,99915.66
2022-12-19T05:08:44.202Z,99914.00
2022-12-19T05:11:19.396Z,99909.92
2022-12-19T05:13:50.127Z,99916.37
2022-12-19T05:16:18.928Z,99921.13
2022-12-19T05:18:47.444Z,99927.30
2022-12-19T05:21:15.540Z,99930.96
2022-12-19T05:23:43.714Z,99935.60
2022-12-19T05:26:12.295Z,99937.39
2022-12-19T05:28:40.429Z,99934.73
2022-12-19T05:31:13.753Z,99936.79
2022-12-19T05:33:42.986Z,99938.51
2022-12-19T05:36:14.058Z,99937.02
2022-12-19T05:38:42.863Z,99931.72
2022-12-19T05:41:18.893Z,99930.94
2022-12-19T05:43:54.701Z,99920.45
2022-12-19T05:46:24.306Z,99917.66
2022-12-19T05:48:53.136Z,99924.41
2022-12-19T05:51:22.088Z,99921.52
2022-12-19T05:53:50.412Z,99922.73
2022-12-19T05:56:22.070Z,99922.59
2022-12-19T05:58:50.839Z,99919.77
2022-12-19T06:01:24.045Z,99915.67
2022-12-19T06:03:54.115Z,99918.45
2022-12-19T06:06:26.229Z,99923.59
2022-12-19T06:08:58.753Z,99930.39
2022-12-19T06:11:27.698Z,99927.83
2022-12-19T06:13:55.971Z,99931.27
2022-12-19T06:16:24.799Z,99934.59
2022-12-19T06:18:53.203Z,99931.80
2022-12-19T06:21:23.765Z,99930.85
2022-12-19T06:23:52.016Z,99934.73
2022-12-19T06:26:22.603Z,99934.64
2022-12-19T06:28:52.853Z,99932.83
2022-12-19T06:31:24.135Z,99931.29
2022-12-19T06:33:52.988Z,99926.40
2022-12-19T06:36:30.322Z,99935.33
2022-12-19T06:38:59.013Z,99936.86
2022-12-19T06:41:46.293Z,99942.87
2022-12-19T06:44:17.144Z,99944.01
2022-12-19T06:46:45.332Z,99943.18
2022-12-19T06:49:13.929Z,99947.55
2022-12-19T06:51:42.508Z,99948.45
2022-12-19T06:54:12.461Z,99950.16
2022-12-19T06:56:43.143Z,99947.79
2022-12-19T06:59:16.558Z,99947.85
2022-12-19T07:02:00.825Z,99946.29
2022-12-19T07:04:51.876Z,99946.13
2022-12-19T07:07:20.182Z,99948.39
2022-12-19T07:09:49.006Z,99950.63
2022-12-19T07:12:17.247Z,99947.81
2022-12-19T07:14:50.236Z,99950.84
2022-12-19T07:17:24.764Z,99950.27
2022-12-19T07:19:58.094Z,99955.38
2022-12-19T07:22:31.962Z,99958.73
2022-12-19T07:25:02.700Z,99958.78
2022-12-19T07:27:35.697Z,99959.27
2022-12-19T07:30:07.952Z,99955.72
2022-12-19T07:32:36.670Z,99951.39
2022-12-19T07:35:07.000Z,99950.54
2022-12-19T07:37:35.583Z,99948.44
2022-12-19T07:40:04.963Z,99949.84
2022-12-19T07:42:34.257Z,99945.88
2022-12-19T07:45:02.932Z,99946.50
2022-12-19T07:47:31.522Z,99949.05
2022-12-19T07:49:59.808Z,99950.47
2022-12-19T07:52:28.276Z,99953.27
2022-12-19T07:54:56.453Z,99953.28
2022-12-19T07:57:24.627Z,99958.39
2022-12-19T07:59:53.102Z,99956.00
2022-12-19T08:02:21.559Z,99957.39
2022-12-19T08:04:50.966Z,99957.53
2022-12-19T08:07:19.264Z,99959.52
2022-12-19T08:09:47.542Z,99961.80
2022-12-19T08:12:17.018Z,99960.33
2022-12-19T08:14:45.339Z,99961.34
2022-12-19T08:17:21.390Z,99963.17
2022-12-19T08:19:49.999Z,99965.89
2022-12-19T08:22:18.240Z,99968.78
2022-12-19T08:24:46.390Z,99969.95
2022-12-19T08:27:17.176Z,99973.53
2022-12-19T08:29:45.351Z,99975.70
2022-12-19T08:32:20.465Z,99977.67
2022-12-19T08:34:50.521Z,99981.92
2022-12-19T08:37:18.691Z,99982.82
2022-12-19T08:39:46.940Z,99984.07
2022-12-19T08:42:15.024Z,99985.81
2022-12-19T08:44:43.279Z,99986.63
2022-12-19T08:47:11.429Z,99984.69
2022-12-19T08:49:39.649Z,99984.84
2022-12-19T08:52:08.143Z,99975.13
2022-12-19T08:54:36.714Z,99973.46
2022-12-19T08:57:04.914Z,99968.38
2022-12-19T08:59:33.100Z,99973.27
2022-12-19T09:02:02.530Z,99968.06
2022-12-19T09:06:00.116Z,99960.48
2022-12-19T09:07:19.277Z,99960.05
2022-12-19T09:09:47.484Z,99957.35
2022-12-19T09:12:18.392Z,99956.52
2022-12-19T09:14:46.972Z,99955.81
2022-12-19T09:17:15.396Z,99952.60
2022-12-19T09:19:47.500Z,99948.73
2022-12-19T09:22:16.957Z,99950.52
2022-12-19T09:24:45.920Z,99945.64
2022-12-19T09:27:17.869Z,99945.98
2022-12-19T09:29:51.952Z,99944.91
2022-12-19T09:32:20.297Z,99944.84
2022-12-19T09:34:48.378Z,99942.41
2022-12-19T09:37:17.859Z,99944.78
2022-12-19T09:39:47.681Z,99942.11
2022-12-19T09:42:21.932Z,99939.65
2022-12-19T09:45:10.534Z,99940.61
2022-12-19T09:47:47.259Z,99943.10
2022-12-19T09:50:31.753Z,99938.48
2022-12-19T09:53:13.251Z,99935.46
2022-12-19T09:55:42.754Z,99932.61
2022-12-19T09:58:54.219Z,99934.63
2022-12-19T10:01:30.916Z,99931.70
2022-12-19T10:04:13.059Z,99932.34
2022-12-19T10:07:09.003Z,99928.74
2022-12-19T10:11:13.994Z,99922.62
2022-12-19T10:12:51.924Z,99916.05
2022-12-19T10:15:46.181Z,99915.13
2022-12-19T10:18:57.033Z,99916.04
2022-12-19T10:22:17.269Z,99914.34
2022-12-19T10:25:17.414Z,99905.41
2022-12-19T10:28:35.996Z,99898.59
2022-12-19T10:31:33.010Z,99893.99
2022-12-19T10:34:38.707Z,99893.39
2022-12-19T10:37:40.880Z,99888.94
2022-12-19T10:40:28.623Z,99883.33
2022-12-19T10:43:22.878Z,99882.00
2022-12-19T10:45:59.663Z,99879.23
2022-12-19T10:48:31.295Z,99875.55
2022-12-19T10:51:00.677Z,99877.41
2022-12-19T10:53:35.132Z,99872.97
2022-12-19T10:56:20.702Z,99863.66
2022-12-19T10:58:57.455Z,99856.39
2022-12-19T11:01:36.180Z,99852.91
2022-12-19T11:04:30.211Z,99849.92
2022-12-19T11:07:07.588Z,99853.24
2022-12-19T11:09:41.875Z,99856.98
2022-12-19T11:14:28.168Z,99856.40
2022-12-19T11:21:07.240Z,99854.24
2022-12-19T11:27:37.709Z,99852.63
2022-12-19T11:29:32.936Z,99853.86
2022-12-19T11:30:09.923Z,99856.62
2022-12-19T11:30:38.648Z,99854.20
2022-12-19T11:32:44.230Z,99851.61
2022-12-19T11:35:24.686Z,99853.71
2022-12-19T11:37:57.379Z,99850.44
2022-12-19T11:40:51.070Z,99853.53
2022-12-19T11:43:46.681Z,99853.66
2022-12-19T11:46:40.498Z,99852.02
2022-12-19T11:49:35.133Z,99851.81
2022-12-19T11:55:56.138Z,99850.46
2022-12-19T11:58:31.256Z,99846.44
2022-12-19T12:01:20.769Z,99843.66
2022-12-19T12:04:19.307Z,99839.49
2022-12-19T12:06:56.625Z,99836.27
2022-12-19T12:15:03.510Z,99839.70
2022-12-19T12:22:34.791Z,99838.17
2022-12-19T12:31:09.270Z,99841.66
2022-12-19T12:31:11.703Z,99847.29
2022-12-19T12:31:40.359Z,99857.86
2022-12-19T12:31:40.925Z,99851.88
2022-12-19T12:32:00.732Z,99851.96
2022-12-19T12:35:51.511Z,99867.43
2022-12-19T12:38:36.076Z,99863.44
2022-12-19T12:41:07.845Z,99851.55
2022-12-19T12:44:00.811Z,99839.88
2022-12-19T12:46:39.939Z,99831.38
2022-12-19T12:49:59.159Z,99830.19
2022-12-19T12:52:55.580Z,99824.98
2022-12-19T12:55:41.424Z,99823.48
2022-12-19T12:58:54.479Z,99830.86
2022-12-19T13:01:28.598Z,99837.90
2022-12-19T13:04:02.724Z,99838.45
2022-12-19T13:06:39.910Z,99833.02
2022-12-19T13:09:20.062Z,99828.79
2022-12-19T13:12:13.163Z,99827.19
2022-12-19T13:14:46.745Z,99823.63
2022-12-19T13:17:24.192Z,99823.72
2022-12-19T13:20:17.957Z,99829.31
2022-12-19T13:22:58.802Z,99827.39
2022-12-19T13:25:27.037Z,99825.06
2022-12-19T13:28:33.684Z,99830.06
2022-12-19T13:31:15.477Z,99831.86
2022-12-19T13:33:56.232Z,99829.02
2022-12-19T13:39:49.683Z,99827.48
2022-12-19T13:40:10.858Z,99825.95
2022-12-19T13:43:25.077Z,99825.66
2022-12-19T13:46:03.035Z,99825.19
2022-12-19T13:48:41.644Z,99818.78
2022-12-19T13:51:12.515Z,99814.55
2022-12-19T13:53:43.359Z,99815.48
2022-12-19T13:56:18.110Z,99814.92
2022-12-19T13:58:58.162Z,99825.16
2022-12-19T14:01:38.479Z,99832.05
2022-12-19T14:04:12.144Z,99824.86
2022-12-19T14:06:54.253Z,99820.34
2022-12-19T14:11:33.442Z,99818.98
2022-12-19T14:13:57.670Z,99818.79
2022-12-19T14:15:52.511Z,99823.09
2022-12-19T14:18:42.688Z,99824.06
2022-12-19T14:22:04.466Z,99819.36
2022-12-19T14:24:21.842Z,99824.30
2022-12-19T14:28:18.954Z,99822.85
2022-12-19T14:30:30.292Z,99822.27
2022-12-19T14:33:45.213Z,99821.46
2022-12-19T14:36:09.090Z,99817.95
2022-12-19T14:39:24.940Z,99825.43
2022-12-19T14:41:48.220Z,99829.20
2022-12-19T14:52:25.971Z,99821.84
2022-12-19T14:55:41.771Z,99817.33
2022-12-19T14:58:51.531Z,99822.73
2022-12-19T15:01:09.225Z,99825.20
2022-12-19T15:03:35.331Z,99819.29
2022-12-19T15:07:06.042Z,99821.12
2022-12-19T15:10:59.640Z,99821.59
2022-12-19T15:14:55.228Z,99825.95
2022-12-19T18:46:51.855Z,99731.02
2022-12-19T18:49:20.649Z,99726.01
2022-12-19T18:51:52.710Z,99723.30
2022-12-19T18:54:22.614Z,99720.09
2022-12-19T18:56:52.011Z,99715.37
2022-12-19T18:59:21.618Z,99718.10
2022-12-19T19:01:50.202Z,99715.34
2022-12-19T19:04:19.883Z,99716.19
2022-12-19T19:06:52.267Z,99710.08
2022-12-19T19:09:21.824Z,99712.67
2022-12-19T19:11:50.088Z,99711.05
2022-12-19T19:14:18.166Z,99709.81
2022-12-19T19:16:46.371Z,99711.11
2022-12-19T19:19:18.436Z,99706.45
2022-12-19T19:21:46.781Z,99706.00
2022-12-19T19:24:21.831Z,99708.62
2022-12-19T19:26:50.182Z,99706.52
2022-12-19T19:29:19.815Z,99707.58
2022-12-19T19:31:51.352Z,99704.25
2022-12-19T19:34:31.812Z,99695.83
2022-12-19T19:37:03.980Z,99688.40
2022-12-19T19:39:34.308Z,99693.65
2022-12-19T19:42:02.990Z,99690.33
2022-12-19T19:44:31.267Z,99687.20
2022-12-19T19:46:59.833Z,99690.07
2022-12-19T19:49:28.240Z,99685.40
2022-12-19T19:52:02.160Z,99683.27
2022-12-19T19:54:32.398Z,99682.89
2022-12-19T19:57:00.944Z,99676.59
2022-12-19T19:59:31.379Z,99672.95
2022-12-19T20:01:59.897Z,99672.20
2022-12-19T20:04:28.237Z,99669.27
2022-12-19T20:06:56.610Z,99675.14
2022-12-19T20:09:24.786Z,99677.09
2022-12-19T20:11:52.965Z,99681.75
2022-12-19T20:14:21.126Z,99685.52
2022-12-19T20:16:50.731Z,99683.73
2022-12-19T20:19:19.066Z,99678.27
2022-12-19T20:21:47.316Z,99681.35
2022-12-19T20:24:15.473Z,99680.17
2022-12-19T20:26:43.747Z,99675.44
2022-12-19T20:29:11.933Z,99666.64
2022-12-19T20:31:41.508Z,99668.48
2022-12-19T20:34:09.991Z,99673.31
2022-12-19T20:36:38.181Z,99669.92
2022-12-19T20:39:06.737Z,99672.94
2022-12-19T20:41:35.351Z,99673.72
2022-12-19T20:44:03.837Z,99672.72
2022-12-19T20:46:32.168Z,99673.03
2022-12-19T20:49:00.879Z,99670.52
2022-12-19T20:51:29.022Z,99667.02
2022-12-19T20:53:57.239Z,99661.91
2022-12-19T20:56:26.097Z,99654.48
2022-12-19T20:58:54.713Z,99662.06
2022-12-19T21:01:25.404Z,99663.40
2022-12-19T21:03:53.871Z,99664.53
2022-12-19T21:06:27.406Z,99667.34
2022-12-19T21:08:57.134Z,99666.92
2022-12-19T21:11:26.598Z,99668.15
2022-12-19T21:13:54.829Z,99667.61
2022-12-19T21:16:23.754Z,99665.46
2022-12-19T21:18:52.176Z,99668.67
2022-12-19T21:21:26.162Z,99669.70
2022-12-19T21:23:56.043Z,99672.30
2022-12-19T21:26:26.025Z,99669.44
2022-12-19T21:28:57.819Z,99667.49
2022-12-19T21:31:29.805Z,99666.73
2022-12-19T21:34:00.404Z,99661.73
2022-12-19T21:36:30.769Z,99660.40
2022-12-19T21:39:01.913Z,99661.10
2022-12-19T21:41:31.667Z,99660.48
2022-12-19T21:44:00.703Z,99660.64
2022-12-19T21:46:35.705Z,99660.64
2022-12-19T21:49:03.901Z,99661.15
2022-12-19T21:51:32.760Z,99661.01
2022-12-19T21:54:04.104Z,99666.33
2022-12-19T21:56:35.645Z,99663.92
2022-12-19T21:59:07.828Z,99662.28
2022-12-19T22:01:36.335Z,99664.39
2022-12-19T22:04:17.994Z,99664.17
2022-12-19T22:06:47.522Z,99662.71
2022-12-19T22:09:20.025Z,99662.30
2022-12-19T22:11:48.753Z,99659.42
2022-12-19T22:14:17.888Z,99656.46
2022-12-19T22:16:46.330Z,99653.02
2022-12-19T22:19:18.110Z,99649.55
2022-12-19T22:21:47.481Z,99645.80
2022-12-19T22:24:17.383Z,99641.40
2022-12-19T22:26:46.008Z,99642.88
2022-12-19T22:29:16.437Z,99643.30
2022-12-19T22:31:46.204Z,99637.92
2022-12-19T22:34:18.639Z,99632.45
2022-12-19T22:36:48.908Z,99626.67
2022-12-19T22:39:19.782Z,99619.27
2022-12-19T22:41:48.038Z,99612.92
2022-12-19T22:44:23.501Z,99608.66
2022-12-19T22:46:52.507Z,99603.22
2022-12-19T22:49:21.007Z,99600.06
2022-12-19T22:51:50.038Z,99599.92
2022-12-19T22:54:18.242Z,99594.18
2022-12-19T22:56:50.120Z,99595.32
2022-12-19T22:59:18.385Z,99593.69
2022-12-19T23:01:46.661Z,99589.21
2022-12-19T23:04:16.048Z,99592.34
2022-12-19T23:06:44.685Z,99588.88
2022-12-19T23:09:17.322Z,99593.77
2022-12-19T23:11:49.226Z,99596.02
2022-12-19T23:14:19.824Z,99594.20
2022-12-19T23:16:48.659Z,99590.44
2022-12-19T23:19:18.474Z,99584.99
2022-12-19T23:21:46.814Z,99586.20
2022-12-19T23:24:15.181Z,99582.62
2022-12-19T23:26:43.374Z,99581.60
2022-12-19T23:29:15.319Z,99581.69
2022-12-19T23:31:46.659Z,99576.11
2022-12-19T23:34:16.577Z,99572.06
2022-12-19T23:37:10.300Z,99564.86
2022-12-19T23:39:33.819Z,99561.13
2022-12-19T23:42:02.178Z,99560.13
2022-12-19T23:44:30.605Z,99563.06
2022-12-19T23:47:02.942Z,99561.52
2022-12-19T23:49:33.956Z,99555.77
2022-12-19T23:52:02.262Z,99550.94
2022-12-19T23:54:30.454Z,99558.50
2022-12-19T23:56:58.726Z,99557.22
2022-12-19T23:59:26.907Z,99556.27
